Time;durP1;ratioP1;P1;durP2;ratioP2;P2;SDS_P1;SDS_P2;PMS_P1;PMS_P2;Temp;Humidity;BMP_temperature;BMP_pressure;BME280_temperature;BME280_humidity;BME280_pressure;Samples;Min_cycle;Max_cycle;Signal;HPM_P1;HPM_P2
2022/01/31 00:06:56;;;;;;;10.30;4.67;;;;;;;-0.55;100.00;98909.34;30941008;28;20050;-76
2022/01/31 00:21:59;;;;;;;19.30;9.90;;;;;;;-0.60;100.00;98912.38;30932304;28;20529;-76
2022/01/31 00:37:02;;;;;;;24.87;11.43;;;;;;;-0.65;100.00;98861.31;30943199;28;20105;-77
2022/01/31 00:52:04;;;;;;;9.83;6.57;;;;;;;-0.76;100.00;98855.94;30943720;28;20088;-75
2022/01/31 01:07:06;;;;;;;21.50;11.57;;;;;;;-0.81;100.00;98890.91;30933844;28;20141;-77
2022/01/31 01:22:08;;;;;;;12.77;6.57;;;;;;;-0.80;100.00;98841.81;30931107;28;20407;-77
2022/01/31 01:37:10;;;;;;;19.00;10.80;;;;;;;-0.83;100.00;98846.00;30954219;28;20043;-75
2022/01/31 01:52:13;;;;;;;15.13;8.07;;;;;;;-0.75;100.00;98854.81;30969408;28;20055;-75
2022/01/31 02:07:15;;;;;;;16.00;7.70;;;;;;;-0.74;100.00;98843.78;30953091;28;20499;-75
2022/01/31 02:22:16;;;;;;;19.80;8.20;;;;;;;-0.64;100.00;98834.28;30704362;29;20145;-76
2022/01/31 02:37:19;;;;;;;13.73;7.17;;;;;;;-0.63;100.00;98800.41;30698890;29;20501;-76
2022/01/31 02:52:23;;;;;;;12.13;7.00;;;;;;;-0.55;100.00;98789.41;30696485;28;20051;-76
2022/01/31 03:07:25;;;;;;;25.37;9.13;;;;;;;-0.57;100.00;98794.34;30708573;28;20075;-76
2022/01/31 03:22:27;;;;;;;25.87;7.97;;;;;;;-0.48;100.00;98770.78;30944848;28;20047;-76
2022/01/31 03:37:29;;;;;;;17.13;7.07;;;;;;;-0.42;100.00;98766.59;30966641;28;20554;-77
2022/01/31 03:52:31;;;;;;;19.07;8.00;;;;;;;-0.37;100.00;98776.88;30930741;28;20051;-76
2022/01/31 04:07:33;;;;;;;16.83;7.47;;;;;;;-0.16;100.00;98759.41;30934235;28;20381;-76
2022/01/31 04:22:41;;;;;;;13.17;6.37;;;;;;;0.05;100.00;98759.44;30949241;28;20050;-76
2022/01/31 04:37:43;;;;;;;8.23;4.67;;;;;;;0.09;100.00;98770.88;30947775;28;20073;-77
2022/01/31 04:52:45;;;;;;;10.83;5.47;;;;;;;0.12;100.00;98772.78;30951401;28;20050;-75
2022/01/31 05:07:48;;;;;;;10.60;5.93;;;;;;;0.12;100.00;98770.13;30976186;28;20057;-77
2022/01/31 05:22:50;;;;;;;10.37;6.23;;;;;;;0.15;100.00;98785.38;30945600;28;20101;-77
2022/01/31 05:37:52;;;;;;;10.77;6.10;;;;;;;0.34;100.00;98782.31;30938485;28;20078;-77
2022/01/31 05:52:54;;;;;;;10.77;5.40;;;;;;;0.50;100.00;98784.59;30944780;28;20046;-77
2022/01/31 06:07:57;;;;;;;12.40;6.10;;;;;;;0.58;100.00;98801.41;30947701;28;20063;-75
2022/01/31 06:22:59;;;;;;;10.23;5.53;;;;;;;0.79;100.00;98821.97;30972373;28;20062;-76
2022/01/31 06:38:01;;;;;;;10.27;5.37;;;;;;;0.95;100.00;98801.72;30978928;28;20047;-77
2022/01/31 06:53:05;;;;;;;9.63;5.03;;;;;;;1.01;100.00;98802.09;30983552;28;20141;-79
2022/01/31 07:08:07;;;;;;;10.57;5.13;;;;;;;1.20;100.00;98815.03;30956962;28;20073;-75
2022/01/31 07:23:16;;;;;;;8.53;4.40;;;;;;;1.21;100.00;98827.25;30927047;28;20441;-76
2022/01/31 07:38:18;;;;;;;7.67;4.97;;;;;;;1.27;100.00;98816.94;31002524;28;20085;-74
2022/01/31 07:53:20;;;;;;;8.33;4.37;;;;;;;1.30;100.00;98853.59;30981640;28;20094;-76
2022/01/31 08:08:23;;;;;;;7.97;4.80;;;;;;;1.49;100.00;98849.72;30931734;28;20050;-76
2022/01/31 08:23:25;;;;;;;13.87;7.23;;;;;;;1.66;100.00;98863.00;30940900;28;20178;-75
2022/01/31 08:38:27;;;;;;;10.63;6.17;;;;;;;1.82;100.00;98854.56;30932770;28;20153;-76
2022/01/31 08:53:32;;;;;;;14.23;8.13;;;;;;;2.39;100.00;98828.19;30951588;28;20137;-76
2022/01/31 09:08:40;;;;;;;14.53;9.00;;;;;;;3.13;96.10;98841.38;30960319;28;20056;-76
2022/01/31 09:23:42;;;;;;;8.50;4.93;;;;;;;3.18;95.38;98832.88;30951630;28;20079;-75
2022/01/31 09:38:44;;;;;;;4.40;3.33;;;;;;;4.84;88.46;98816.44;30945734;28;20146;-75
2022/01/31 09:53:58;;;;;;;11.13;7.03;;;;;;;4.68;86.08;98816.31;30952520;28;20141;-76
2022/01/31 10:09:06;;;;;;;7.00;4.20;;;;;;;4.51;85.78;98817.34;30946056;28;20065;-76
2022/01/31 10:24:17;;;;;;;12.10;7.13;;;;;;;4.40;86.37;98826.34;30981054;28;20154;-77
2022/01/31 10:55:15;;;;;;;12.03;6.70;;;;;;;5.30;80.58;98812.16;30960029;28;20053;-75
2022/01/31 11:10:27;;;;;;;6.50;3.30;;;;;;;6.44;74.56;98800.50;30995000;28;20734;-75
2022/01/31 11:25:31;;;;;;;12.00;5.13;;;;;;;5.55;78.37;98807.03;30990168;28;20050;-75
2022/01/31 11:40:33;;;;;;;10.73;6.23;;;;;;;4.52;81.28;98824.25;30966099;28;20096;-78
2022/01/31 11:55:38;;;;;;;7.93;4.97;;;;;;;4.52;82.39;98837.69;30930690;28;20543;-76
2022/01/31 12:10:54;;;;;;;7.60;4.50;;;;;;;3.94;84.86;98845.06;30983154;28;20507;-75
2022/01/31 12:25:56;;;;;;;6.07;3.47;;;;;;;3.22;88.52;98857.75;30966249;28;20084;-76
2022/01/31 12:41:04;;;;;;;5.33;2.80;;;;;;;3.02;90.41;98865.63;30945077;28;20328;-77
2022/01/31 12:56:21;;;;;;;4.43;2.83;;;;;;;2.58;95.11;98869.03;31011849;28;20082;-76
2022/01/31 13:11:25;;;;;;;5.63;3.20;;;;;;;2.05;100.00;98894.22;30921066;28;20548;-75
2022/01/31 13:26:27;;;;;;;8.27;3.73;;;;;;;1.90;100.00;98916.81;31044168;28;20145;-77
2022/01/31 13:41:29;;;;;;;6.10;2.90;;;;;;;1.87;100.00;98925.66;30967765;28;20150;-76
2022/01/31 13:56:31;;;;;;;2.93;2.30;;;;;;;1.63;97.77;98954.78;30982363;28;20153;-77
2022/01/31 14:11:43;;;;;;;5.60;1.70;;;;;;;1.68;96.65;98973.09;30972718;28;20405;-77
2022/01/31 14:26:50;;;;;;;2.83;2.03;;;;;;;1.67;93.47;98998.31;30924689;28;20046;-76
2022/01/31 14:57:40;;;;;;;2.23;1.63;;;;;;;1.48;92.18;99054.88;30964985;28;20049;-77
2022/01/31 15:12:44;;;;;;;3.37;1.77;;;;;;;1.46;91.11;99075.91;30968289;28;20059;-76
2022/01/31 15:27:46;;;;;;;3.67;1.80;;;;;;;1.38;92.44;99111.81;30960402;28;20042;-77
2022/01/31 15:42:49;;;;;;;4.37;2.20;;;;;;;1.30;94.04;99124.41;30932511;28;20164;-77
2022/01/31 15:57:51;;;;;;;5.43;3.13;;;;;;;1.29;96.33;99135.47;30963833;28;20085;-76
2022/01/31 16:13:02;;;;;;;4.93;2.83;;;;;;;1.31;96.09;99149.22;30962652;28;20055;-77
2022/01/31 16:28:05;;;;;;;3.97;2.70;;;;;;;1.33;97.03;99154.97;30968979;28;20085;-76
2022/01/31 16:43:08;;;;;;;17.67;9.10;;;;;;;1.40;97.68;99171.03;30967930;28;20065;-76
2022/01/31 16:58:12;;;;;;;26.20;13.73;;;;;;;1.33;99.43;99187.81;30964951;28;20092;-77
2022/01/31 17:13:17;;;;;;;22.60;13.60;;;;;;;1.23;100.00;99206.50;31005706;28;20062;-79
2022/01/31 17:28:19;;;;;;;5.70;3.67;;;;;;;1.25;98.62;99223.69;30971205;28;20137;-79
2022/01/31 17:43:23;;;;;;;4.80;2.87;;;;;;;1.29;99.46;99223.72;30938291;28;20063;-76
2022/01/31 17:58:28;;;;;;;3.47;2.40;;;;;;;1.38;97.13;99237.50;30980872;28;20050;-77
2022/01/31 18:13:30;;;;;;;2.23;1.70;;;;;;;1.41;96.83;99276.88;30930583;28;20055;-77
2022/01/31 18:28:35;;;;;;;8.13;2.73;;;;;;;1.39;97.22;99291.75;30944648;28;20050;-76
2022/01/31 18:43:37;;;;;;;9.40;3.20;;;;;;;1.30;95.50;99300.13;30971874;28;20137;-78
2022/01/31 18:58:42;;;;;;;6.07;2.83;;;;;;;1.21;94.70;99327.19;30964237;28;20058;-76
2022/01/31 19:28:52;;;;;;;4.97;3.07;;;;;;;1.00;94.30;99341.19;31007644;28;20126;-75
2022/01/31 19:43:54;;;;;;;7.53;3.87;;;;;;;0.98;92.59;99348.81;30931605;28;20092;-76
2022/01/31 19:58:57;;;;;;;48.63;20.23;;;;;;;0.86;94.99;99367.81;30966585;28;20051;-77
2022/01/31 20:13:59;;;;;;;17.97;9.47;;;;;;;0.72;94.93;99378.38;30941674;28;20495;-77
2022/01/31 20:29:04;;;;;;;11.93;5.80;;;;;;;0.56;96.69;99396.56;30955170;28;20069;-76
2022/01/31 20:44:10;;;;;;;25.87;14.93;;;;;;;0.47;96.83;99382.75;30987271;28;20150;-76
2022/01/31 20:59:14;;;;;;;14.97;7.70;;;;;;;0.43;96.26;99387.28;30953091;28;20109;-76
2022/01/31 21:14:17;;;;;;;8.83;5.10;;;;;;;0.16;96.53;99411.44;30996247;28;20540;-76
2022/01/31 21:29:19;;;;;;;6.07;3.87;;;;;;;0.17;99.72;99418.31;30974264;28;20054;-75
2022/01/31 21:44:21;;;;;;;5.80;3.20;;;;;;;0.25;99.05;99403.88;30998960;28;20066;-78
2022/01/31 21:59:24;;;;;;;6.57;3.73;;;;;;;0.14;99.21;99424.38;30971152;28;20050;-75
2022/01/31 22:14:30;;;;;;;7.13;4.17;;;;;;;0.01;99.14;99452.41;30948728;28;20072;-75
2022/01/31 22:29:32;;;;;;;5.90;3.57;;;;;;;-0.15;98.55;99460.63;30992198;28;20042;-75
2022/01/31 22:44:34;;;;;;;8.50;4.37;;;;;;;-0.21;99.40;99482.63;30968866;28;20380;-74
2022/01/31 22:59:37;;;;;;;8.37;3.70;;;;;;;-0.15;98.91;99478.50;30985841;28;20061;-75
2022/01/31 23:14:47;;;;;;;9.07;4.47;;;;;;;-0.11;99.37;99487.34;30943118;28;20141;-75
